Flight Track Log - Related Links

Times and Time Zones

All times are in EDT time to prevent confusion due to time zone crossing. See the TMC493 flight status page for this flight to view local times or setup timezone preferences in your user account.

Time Position Orientation Groundspeed Altitude Reporting Facility
EDT Latitude Longitude Course Direction KTS MPH feet Rate Location/Type
Sat 10:13:43 PM 43.0606 -73.8525 345° North 166 191 900  Level Boston Center
Sat 10:14:49 PM 43.1022 -73.8675 345° North 191 220 4,000 3,052 Climbing Boston Center
Sat 10:15:39 PM 43.0661 -73.9094 220° Southwest 213 245 6,800 3,218 Climbing Boston Center
Sat 10:16:39 PM 43.0156 -73.9622 217° Southwest 232 267 9,900 2,634 Climbing Boston Center
Sat 10:17:42 PM 42.9542 -74.0258 217° Southwest 269 310 12,200 2,628 Climbing Boston Center
Sat 10:18:40 PM 42.8864 -74.0922 216° Southwest 300 345 15,200 1,916 Climbing Boston Center
Sat 10:19:41 PM 42.8189 -74.1611 217° Southwest 300 345 16,000 393 Climbing Boston Center
Sat 10:20:42 PM 42.7361 -74.2436 216° Southwest 348 400 16,000  Level Boston Center
Sat 10:21:40 PM 42.6536 -74.3286 217° Southwest 376 433 16,000  Level Boston Center
Sat 10:22:42 PM 42.5625 -74.4189 216° Southwest 396 456 16,000  Level Boston Center
Sat 10:23:42 PM 42.4839 -74.4981 217° Southwest 396 456 16,000 51 Level Boston Center
Sat 10:24:40 PM 42.3883 -74.5933 216° Southwest 396 456 16,100 900 Climbing Boston Center
Sat 10:25:42 PM 42.3467 -74.7042 243° Southwest 365 420 17,800 950 Climbing Boston Center
Sat 10:26:40 PM 42.3022 -74.8347 245° Southwest 375 432 18,000 102 Climbing Boston Center
Sat 10:27:40 PM 42.2350 -74.9497 232° Southwest 384 442 18,000  Level Boston Center
Sat 10:29:59 PM 41.9936 -75.1214 208° Southwest 409 471 18,000  Level New York Center
Sat 10:30:59 PM 41.9039 -75.1850 208° Southwest 409 471 18,000  Level New York Center
Sat 10:31:59 PM 41.8056 -75.2536 207° Southwest 414 476 18,000  Level New York Center
Sat 10:32:59 PM 41.6964 -75.3297 208° Southwest 407 468 18,000 -50 Level New York Center
Sat 10:33:59 PM 41.5978 -75.3978 207° Southwest 407 468 17,900 -500 Descending New York Center
Sat 10:34:59 PM 41.5017 -75.4658 208° Southwest 407 468 17,000 -1,000 Descending New York Center
Sat 10:35:59 PM 41.4236 -75.5408 216° Southwest 397 457 15,900 -1,850 Descending New York Center
Sat 10:36:59 PM 41.3303 -75.6308 216° Southwest 386 444 13,300 -2,150 Descending New York Center
Sat 10:37:59 PM 41.2317 -75.6514 189° South 357 411 11,600 -1,600 Descending New York Center
Sat 10:38:59 PM 41.1375 -75.6611 184° South 357 411 10,100 -1,300 Descending New York Center
Sat 10:39:59 PM 41.0561 -75.6633 181° South 326 375 9,000 -550 Descending New York Center
Sat 10:40:59 PM 40.9853 -75.6667 182° South 290 334 9,000 -150 Level New York Center
Sat 10:41:59 PM 40.9122 -75.6147 152° Southeast 266 306 8,700 -600 Descending New York Center
Sat 10:42:59 PM 40.8525 -75.5500 141° Southeast 277 319 7,800 -1,000 Descending New York Center
Sat 10:43:59 PM 40.7906 -75.4828 141° Southeast 282 325 6,700 -1,050 Descending New York Center
Sat 10:44:59 PM 40.7306 -75.4183 141° Southeast 282 325 5,700 -850 Descending New York Center
Sat 10:45:59 PM 40.6767 -75.3600 141° Southeast 276 318 5,000 -350 Descending New York Center
Sat 10:46:59 PM 40.6186 -75.2986 141° Southeast 276 318 5,000  Level New York Center
Sat 10:47:59 PM 40.5664 -75.2433 141° Southeast 270 311 5,000  Level New York Center
Sat 10:48:59 PM 40.5103 -75.1822 140° Southeast 270 311 5,000  Level New York Center
Sat 10:49:59 PM 40.4483 -75.1156 141° Southeast 270 311 5,000  Level New York Center
Sat 10:50:59 PM 40.3900 -75.0547 142° Southeast 270 311 5,000 -300 Level New York Center
Sat 10:51:59 PM 40.3361 -74.9942 139° Southeast 270 311 4,400 -800 Descending New York Center
Sat 10:52:59 PM 40.2839 -74.9392 141° Southeast 270 311 3,400 -700 Descending New York Center
Sat 10:53:59 PM 40.2508 -74.8639 120° Southeast 252 290 3,000 -200 Descending New York Center
Sat 10:54:59 PM 40.2397 -74.7681 99° East 240 276 3,000 -50 Level New York Center
Sat 10:55:59 PM 40.2361 -74.6861 93° East 240 276 2,900 -50 Descending New York Center
Sat 10:56:59 PM 40.2267 -74.5986 98° East 240 276 2,900 -150 Level New York Center
Sat 10:57:59 PM 40.2189 -74.5086 96° East 240 276 2,600 -450 Descending New York Center
Sat 10:58:59 PM 40.2153 -74.4267 93° East 233 268 2,000 -300 Descending New York Center
Sat 10:59:59 PM 40.2136 -74.3506 92° East 219 252 2,000 -150 Level New York Center
Sat 11:00:59 PM 40.2139 -74.2692 90° East 213 245 1,700 -350 Descending New York Center
Sat 11:01:59 PM 40.2136 -74.2119 90° East 178 205 1,300 -550 Descending New York Center
Sat 11:02:59 PM 40.2106 -74.1656 95° East 143 165 600 2,850 Descending New York Center
Sat 11:03:59 PM 40.1994 -74.1242 109° East 123 142 7,000 6,400 Climbing New York Center
Sat 11:05:00 PM 40.1833 -74.1167 North  Level FlightAware Approximate
Sat 11:12:00 PM 40.1867 -74.1246 North  Level Estimated

Login

Don't have an account? Register now (free) for customized features, flight alerts, and more!